Time;durP1;ratioP1;P1;durP2;ratioP2;P2;SDS_P1;SDS_P2;PMS_P1;PMS_P2;Temp;Humidity;BMP_temperature;BMP_pressure;BME280_temperature;BME280_humidity;BME280_pressure;Samples;Min_cycle;Max_cycle;Signal;HPM_P1;HPM_P2
2023/09/01 00:02:13;;;;;;;7.00;6.30;;;;;;;19.77;84.82;99437.32;105426;1260;59855;-75
2023/09/01 00:04:50;;;;;;;7.60;6.90;;;;;;;19.73;84.63;99441.92;105609;1259;59721;-77
2023/09/01 00:07:18;;;;;;;7.70;6.40;;;;;;;19.69;84.22;99446.24;105547;1262;71977;-75
2023/09/01 00:09:45;;;;;;;6.30;5.80;;;;;;;19.73;84.07;99442.10;105496;1260;70104;-76
2023/09/01 00:12:12;;;;;;;7.80;6.60;;;;;;;19.77;84.28;99447.36;105642;1257;72672;-75
2023/09/01 00:14:40;;;;;;;8.10;7.30;;;;;;;19.74;84.19;99443.23;105413;1258;60026;-76
2023/09/01 00:17:08;;;;;;;6.60;5.90;;;;;;;19.69;84.67;99446.07;105380;1258;60146;-75
2023/09/01 00:19:36;;;;;;;8.20;5.70;;;;;;;19.71;84.60;99448.09;105419;1258;73367;-73
2023/09/01 00:22:03;;;;;;;9.20;7.50;;;;;;;19.72;84.47;99449.91;105277;1257;70587;-74
2023/09/01 00:24:32;;;;;;;7.60;6.90;;;;;;;19.69;84.69;99454.53;105292;1257;72781;-73
2023/09/01 00:26:59;;;;;;;10.10;7.10;;;;;;;19.66;85.04;99453.54;105653;1257;59631;-75
2023/09/01 00:29:27;;;;;;;8.40;7.50;;;;;;;19.65;85.12;99459.20;105494;1264;60102;-73
2023/09/01 00:31:55;;;;;;;10.40;7.30;;;;;;;19.69;84.98;99462.83;105431;1260;73058;-74
2023/09/01 00:34:22;;;;;;;11.00;7.20;;;;;;;19.68;85.29;99456.45;105401;1259;69987;-77
2023/09/01 00:36:50;;;;;;;7.10;6.50;;;;;;;19.64;85.81;99461.20;105392;1260;72699;-75
2023/09/01 00:39:17;;;;;;;9.50;8.00;;;;;;;19.59;86.02;99468.01;105394;1260;60048;-76
2023/09/01 00:41:45;;;;;;;9.90;7.70;;;;;;;19.54;85.92;99472.98;105411;1257;60088;-74
2023/09/01 00:44:14;;;;;;;8.10;7.30;;;;;;;19.55;85.55;99478.08;105552;1262;73058;-74
2023/09/01 00:46:46;;;;;;;8.10;7.40;;;;;;;19.55;85.49;99478.02;105691;1257;68884;-75
2023/09/01 00:49:16;;;;;;;8.90;7.50;;;;;;;19.51;85.90;99478.67;105781;1259;71401;-75
2023/09/01 00:51:46;;;;;;;7.50;6.80;;;;;;;19.48;86.51;99477.48;105653;1262;60600;-76
2023/09/01 00:54:15;;;;;;;7.10;6.40;;;;;;;19.54;86.32;99472.08;105558;1257;59647;-75
2023/09/01 00:56:42;;;;;;;8.50;7.70;;;;;;;19.58;85.91;99473.75;105561;1262;73658;-74
2023/09/01 00:59:09;;;;;;;8.70;7.70;;;;;;;19.56;85.74;99470.09;105429;1260;69239;-74
2023/09/01 01:01:37;;;;;;;7.40;6.70;;;;;;;19.52;85.78;99467.62;105411;1262;72706;-74
2023/09/01 01:04:07;;;;;;;7.90;7.00;;;;;;;19.54;85.97;99468.35;105694;1260;63820;-75
2023/09/01 01:06:56;;;;;;;9.30;7.10;;;;;;;19.56;85.77;99461.19;105671;1261;59551;-75
2023/09/01 01:09:29;;;;;;;8.00;7.30;;;;;;;19.51;85.70;99464.95;105472;1262;73066;-76
2023/09/01 01:12:17;;;;;;;7.70;6.90;;;;;;;19.45;85.98;99466.47;105499;1258;70327;-73
2023/09/01 01:14:52;;;;;;;7.80;6.60;;;;;;;19.41;86.00;99467.36;105498;1260;71482;-73
2023/09/01 01:17:20;;;;;;;7.80;7.00;;;;;;;19.46;86.15;99464.78;105628;1257;61641;-75
2023/09/01 01:19:54;;;;;;;7.20;6.50;;;;;;;19.49;86.20;99470.93;105373;1263;62040;-76
2023/09/01 01:22:42;;;;;;;7.80;7.10;;;;;;;19.41;86.54;99474.48;105376;1257;71782;-75
2023/09/01 01:25:11;;;;;;;7.60;6.60;;;;;;;19.37;87.02;99470.44;105309;1263;70038;-77
2023/09/01 01:27:41;;;;;;;9.10;6.70;;;;;;;19.38;86.78;99473.21;105479;1260;72386;-76
2023/09/01 01:30:13;;;;;;;7.90;7.20;;;;;;;19.37;86.69;99473.94;105267;1257;60114;-76
2023/09/01 01:32:41;;;;;;;8.30;7.50;;;;;;;19.33;87.50;99474.11;105544;1257;59887;-76
2023/09/01 01:35:15;;;;;;;7.90;7.10;;;;;;;19.30;87.56;99477.11;105306;1265;73184;-76
2023/09/01 01:37:50;;;;;;;6.90;6.30;;;;;;;19.33;87.57;99484.77;105656;1257;70834;-76
2023/09/01 01:40:18;;;;;;;7.50;6.80;;;;;;;19.36;87.48;99486.09;105451;1257;71386;-77
2023/09/01 01:42:47;;;;;;;9.40;7.30;;;;;;;19.34;87.27;99489.60;105956;1260;60125;-77
2023/09/01 01:45:20;;;;;;;8.00;7.20;;;;;;;19.31;87.29;99488.08;106111;1257;61325;-78
2023/09/01 01:47:49;;;;;;;6.90;6.20;;;;;;;19.29;87.19;99480.64;105675;1258;71818;-74
2023/09/01 01:50:16;;;;;;;7.40;6.70;;;;;;;19.33;86.95;99480.91;105467;1257;70566;-74
2023/09/01 01:52:44;;;;;;;8.40;7.40;;;;;;;19.37;86.99;99476.92;105498;1260;72759;-76
2023/09/01 01:55:12;;;;;;;7.70;7.00;;;;;;;19.35;86.89;99477.82;105671;1261;59618;-76
2023/09/01 01:57:41;;;;;;;7.80;4.30;;;;;;;19.30;86.73;99473.91;106172;1262;59964;-75
2023/09/01 02:00:14;;;;;;;7.30;6.60;;;;;;;19.31;86.46;99471.75;106304;1257;73509;-74
2023/09/01 02:02:45;;;;;;;;;;;;;;;19.33;86.48;99476.85;106537;1262;68805;-76
2023/09/01 02:05:13;;;;;;;8.20;7.50;;;;;;;19.29;86.32;99473.85;105751;1257;72683;-78
2023/09/01 02:07:41;;;;;;;8.50;6.60;;;;;;;19.23;86.56;99469.98;105779;1257;60376;-78
2023/09/01 02:10:08;;;;;;;7.40;6.70;;;;;;;19.25;86.76;99473.66;105600;1262;60477;-77
2023/09/01 02:12:36;;;;;;;8.10;7.30;;;;;;;19.28;86.53;99476.45;105601;1257;73190;-77
2023/09/01 02:15:08;;;;;;;7.70;7.00;;;;;;;19.22;86.88;99478.42;105510;1257;70644;-79
2023/09/01 02:17:36;;;;;;;;;;;;;;;19.17;86.72;99478.02;105543;1257;71429;-77
2023/09/01 02:20:18;;;;;;;8.20;7.20;;;;;;;19.17;86.53;99476.15;105534;1262;60859;-78
2023/09/01 02:22:48;;;;;;;9.40;8.00;;;;;;;19.19;86.68;99480.06;106665;1257;59701;-77
2023/09/01 02:25:15;;;;;;;8.60;7.80;;;;;;;19.14;86.65;99482.08;105752;1257;73190;-75
2023/09/01 02:27:43;;;;;;;8.00;7.20;;;;;;;19.09;87.09;99488.96;105642;1257;70359;-75
2023/09/01 02:30:12;;;;;;;7.00;6.30;;;;;;;19.11;86.90;99492.73;105663;1257;70430;-74
2023/09/01 02:32:40;;;;;;;8.20;7.50;;;;;;;19.15;86.90;99496.77;105876;1253;59387;-74
2023/09/01 02:35:08;;;;;;;8.50;7.60;;;;;;;19.13;86.87;99500.86;105816;1256;59547;-76
2023/09/01 02:37:36;;;;;;;8.90;7.40;;;;;;;19.08;86.93;99504.92;105755;1255;73022;-74
2023/09/01 02:40:13;;;;;;;8.30;7.30;;;;;;;19.09;87.10;99508.98;105763;1259;70418;-73
2023/09/01 02:42:41;;;;;;;9.20;7.80;;;;;;;19.13;87.18;99513.45;105741;1257;71444;-73
2023/09/01 02:45:13;;;;;;;10.20;8.10;;;;;;;19.10;87.30;99510.26;105596;1262;59736;-74
2023/09/01 02:47:43;;;;;;;8.80;8.00;;;;;;;19.05;87.14;99515.36;105754;1253;59695;-75
2023/09/01 02:50:11;;;;;;;9.40;8.10;;;;;;;19.03;87.05;99515.21;105912;1253;72196;-76
2023/09/01 02:52:38;;;;;;;9.30;8.30;;;;;;;19.03;87.12;99514.72;105911;1256;69974;-75
2023/09/01 02:55:06;;;;;;;9.60;8.60;;;;;;;18.98;87.31;99516.90;105949;1255;72446;-77
2023/09/01 02:57:35;;;;;;;8.20;7.40;;;;;;;18.94;87.46;99518.77;106639;1253;60955;-75
2023/09/01 03:00:21;;;;;;;8.70;7.80;;;;;;;18.95;87.43;99517.52;108295;1254;59637;-75
2023/09/01 03:02:51;;;;;;;9.30;8.40;;;;;;;18.96;87.53;99517.71;106618;1254;73182;-78
2023/09/01 03:05:19;;;;;;;10.20;8.60;;;;;;;18.92;87.66;99514.83;106528;1253;70483;-75
2023/09/01 03:07:46;;;;;;;8.20;7.50;;;;;;;18.88;87.98;99510.83;106302;1259;72457;-75
2023/09/01 03:10:13;;;;;;;9.50;8.50;;;;;;;18.93;87.99;99509.76;106052;1262;60516;-74
2023/09/01 03:12:41;;;;;;;10.50;9.20;;;;;;;18.96;88.18;99515.89;105822;1259;59549;-74
2023/09/01 03:15:09;;;;;;;9.80;8.80;;;;;;;18.95;88.10;99514.98;106299;1253;71463;-75
2023/09/01 03:17:37;;;;;;;10.60;9.10;;;;;;;18.89;88.24;99515.04;107661;1258;69145;-75
2023/09/01 03:20:05;;;;;;;11.00;9.00;;;;;;;18.84;88.48;99513.77;106435;1253;71445;-74
2023/09/01 03:22:33;;;;;;;10.40;9.10;;;;;;;18.87;88.41;99515.85;105700;1262;60404;-73
2023/09/01 03:25:01;;;;;;;13.10;11.20;;;;;;;18.90;88.33;99517.33;105837;1257;60389;-73
2023/09/01 03:27:30;;;;;;;10.80;9.40;;;;;;;18.85;88.42;99519.80;105590;1257;72657;-76
2023/09/01 03:29:57;;;;;;;8.80;8.00;;;;;;;18.83;88.79;99525.17;105794;1258;69423;-76
2023/09/01 03:32:29;;;;;;;10.50;9.40;;;;;;;18.87;88.39;99524.29;105749;1255;70644;-76
2023/09/01 03:34:56;;;;;;;9.50;8.50;;;;;;;18.88;88.45;99529.11;106246;1254;60556;-76
2023/09/01 03:37:24;;;;;;;10.10;9.10;;;;;;;18.83;88.76;99532.25;105577;1256;60563;-75
2023/09/01 03:39:51;;;;;;;9.30;8.20;;;;;;;18.79;88.74;99536.04;105763;1253;71376;-75
2023/09/01 03:42:19;;;;;;;9.20;8.10;;;;;;;18.81;88.68;99530.11;105908;1256;70630;-75
2023/09/01 03:44:48;;;;;;;10.90;9.50;;;;;;;18.83;88.72;99526.26;105780;1259;71424;-76
2023/09/01 03:47:15;;;;;;;9.30;8.50;;;;;;;18.82;88.95;99530.02;105813;1254;60517;-72
2023/09/01 03:49:43;;;;;;;11.00;8.90;;;;;;;18.80;89.05;99530.89;105715;1254;60892;-74
2023/09/01 03:52:11;;;;;;;11.80;8.10;;;;;;;18.82;88.82;99530.41;105842;1254;73889;-75
2023/09/01 03:54:38;;;;;;;10.00;9.00;;;;;;;18.84;88.73;99531.91;105837;1257;68691;-74
2023/09/01 03:57:05;;;;;;;9.80;8.50;;;;;;;18.80;88.48;99537.70;105607;1254;71910;-75
2023/09/01 03:59:33;;;;;;;12.50;8.40;;;;;;;18.73;88.46;99540.35;105833;1254;61690;-71
2023/09/01 04:02:04;;;;;;;9.30;8.40;;;;;;;18.73;88.25;99546.81;105818;1253;60515;-73
2023/09/01 04:04:32;;;;;;;10.50;9.50;;;;;;;18.75;88.23;99546.65;105908;1260;73839;-72
2023/09/01 04:06:59;;;;;;;10.50;9.40;;;;;;;18.71;88.18;99545.55;105735;1253;69955;-73
2023/09/01 04:09:27;;;;;;;10.10;9.00;;;;;;;18.64;88.33;99552.70;105835;1256;71412;-71
2023/09/01 04:11:55;;;;;;;11.50;8.90;;;;;;;18.64;88.21;99554.05;105731;1259;60495;-74
2023/09/01 04:14:22;;;;;;;10.60;9.40;;;;;;;18.67;88.30;99555.69;105661;1253;60578;-74
2023/09/01 04:16:50;;;;;;;10.70;9.60;;;;;;;18.65;88.64;99554.77;105961;1253;72377;-77
2023/09/01 04:19:17;;;;;;;10.40;8.20;;;;;;;18.61;88.60;99553.36;106070;1257;70271;-73
2023/09/01 04:21:45;;;;;;;10.50;9.50;;;;;;;18.61;88.60;99553.58;106530;1253;72922;-76
2023/09/01 04:24:12;;;;;;;11.00;9.90;;;;;;;18.64;88.92;99544.91;107959;1254;60521;-74
2023/09/01 04:26:40;;;;;;;14.00;10.00;;;;;;;18.67;88.98;99542.39;105809;1256;60524;-74
2023/09/01 04:29:08;;;;;;;11.80;10.00;;;;;;;18.68;88.90;99543.75;105930;1259;73837;-75
2023/09/01 04:31:35;;;;;;;9.60;8.40;;;;;;;18.71;88.78;99542.64;105681;1254;70140;-75
2023/09/01 04:34:03;;;;;;;11.20;10.10;;;;;;;18.75;88.63;99546.64;105558;1261;72426;-75
2023/09/01 04:36:32;;;;;;;12.10;10.20;;;;;;;18.74;88.66;99546.14;105840;1257;60556;-75
2023/09/01 04:39:15;;;;;;;11.30;9.70;;;;;;;18.74;89.03;99545.21;105762;1258;60410;-73
2023/09/01 04:41:44;;;;;;;12.20;9.80;;;;;;;18.82;88.76;99544.34;105666;1259;73899;-73
2023/09/01 04:44:13;;;;;;;11.10;9.80;;;;;;;18.89;88.54;99542.91;105776;1254;68036;-73
2023/09/01 04:46:41;;;;;;;11.80;10.60;;;;;;;18.89;88.79;99546.92;105774;1256;72678;-74
2023/09/01 04:49:08;;;;;;;11.20;10.00;;;;;;;18.91;88.81;99546.27;105630;1254;60651;-76
2023/09/01 04:51:37;;;;;;;10.60;9.40;;;;;;;18.97;88.55;99546.05;105702;1259;60384;-75
2023/09/01 04:54:04;;;;;;;10.00;9.00;;;;;;;19.03;88.43;99547.68;105711;1253;73265;-73
2023/09/01 04:56:32;;;;;;;11.30;10.00;;;;;;;19.02;88.25;99542.25;105820;1254;70337;-76
2023/09/01 04:59:00;;;;;;;10.30;9.30;;;;;;;19.03;88.33;99545.73;105604;1256;71481;-75
2023/09/01 05:01:27;;;;;;;11.80;10.00;;;;;;;19.12;88.13;99544.61;105713;1259;61682;-74
2023/09/01 05:03:55;;;;;;;10.20;9.00;;;;;;;19.21;87.66;99545.72;105769;1254;60348;-74
2023/09/01 05:06:22;;;;;;;9.90;9.00;;;;;;;19.24;87.93;99552.27;105713;1253;72213;-75
2023/09/01 05:08:50;;;;;;;13.90;9.30;;;;;;;19.28;87.98;99553.38;105556;1253;70309;-75
2023/09/01 05:11:17;;;;;;;12.00;9.30;;;;;;;19.38;87.95;99558.11;105719;1253;71382;-75
2023/09/01 05:13:45;;;;;;;10.80;9.10;;;;;;;19.50;87.77;99565.40;105849;1254;60616;-75
2023/09/01 05:16:13;;;;;;;10.00;8.90;;;;;;;19.56;87.63;99568.85;105919;1257;60426;-75
2023/09/01 05:18:41;;;;;;;9.90;8.90;;;;;;;19.60;87.36;99571.80;105635;1253;73881;-76
2023/09/01 05:21:09;;;;;;;9.90;9.00;;;;;;;19.71;86.91;99572.91;105547;1256;71766;-75
2023/09/01 05:23:39;;;;;;;10.80;9.70;;;;;;;19.82;86.27;99575.39;105546;1256;72468;-73
2023/09/01 05:26:07;;;;;;;12.10;10.70;;;;;;;19.90;86.29;99580.05;105555;1258;60549;-71
2023/09/01 05:28:34;;;;;;;10.80;9.70;;;;;;;19.98;86.16;99581.59;105777;1258;60437;-73
2023/09/01 05:31:02;;;;;;;11.10;9.10;;;;;;;20.06;85.76;99588.45;105563;1261;72608;-73
2023/09/01 05:33:33;;;;;;;9.50;8.50;;;;;;;20.19;84.94;99589.84;105353;1259;68877;-73
2023/09/01 05:36:01;;;;;;;8.90;7.90;;;;;;;20.29;84.57;99595.63;105374;1257;72789;-73
2023/09/01 05:38:28;;;;;;;10.00;9.20;;;;;;;20.33;84.37;99603.11;105875;1254;60577;-73
2023/09/01 05:40:57;;;;;;;9.80;8.80;;;;;;;20.37;84.01;99606.05;105872;1253;60340;-75
2023/09/01 05:43:25;;;;;;;8.90;7.90;;;;;;;20.43;83.26;99607.58;105685;1254;73962;-73
2023/09/01 05:45:53;;;;;;;10.10;8.50;;;;;;;20.52;83.51;99608.81;105617;1258;69695;-72
2023/09/01 05:48:25;;;;;;;10.30;8.40;;;;;;;20.66;83.20;99612.06;105542;1257;71502;-74
2023/09/01 05:50:53;;;;;;;9.50;8.50;;;;;;;20.73;82.98;99614.41;105281;1261;60534;-74
2023/09/01 05:53:26;;;;;;;10.00;9.00;;;;;;;20.80;82.89;99617.74;105112;1259;60441;-74
2023/09/01 05:55:53;;;;;;;9.10;8.30;;;;;;;20.90;83.12;99615.67;105338;1256;72645;-72
2023/09/01 05:58:21;;;;;;;8.90;8.00;;;;;;;21.05;82.44;99613.28;105179;1254;68708;-72
2023/09/01 06:00:49;;;;;;;10.90;8.80;;;;;;;21.21;81.74;99612.89;105143;1258;73232;-73
2023/09/01 06:03:17;;;;;;;9.80;8.90;;;;;;;21.30;81.61;99609.74;105259;1257;60889;-74
2023/09/01 06:05:44;;;;;;;9.50;8.60;;;;;;;21.37;81.24;99606.55;105781;1259;60341;-73
2023/09/01 06:08:12;;;;;;;9.30;8.20;;;;;;;21.47;81.07;99610.35;105765;1259;72421;-73
2023/09/01 06:10:40;;;;;;;9.00;7.50;;;;;;;21.57;80.17;99612.06;105606;1256;69999;-73
2023/09/01 06:13:07;;;;;;;11.70;8.80;;;;;;;21.65;79.71;99610.36;105480;1254;72725;-75
2023/09/01 06:15:35;;;;;;;10.50;8.70;;;;;;;21.65;79.26;99606.73;105777;1257;62458;-73
2023/09/01 06:18:03;;;;;;;9.60;8.70;;;;;;;21.60;79.04;99605.73;105956;1256;60577;-75
2023/09/01 06:20:30;;;;;;;9.10;8.30;;;;;;;21.56;79.28;99604.54;105852;1254;72566;-76
2023/09/01 06:22:57;;;;;;;9.30;8.30;;;;;;;21.55;78.94;99602.56;105844;1254;70132;-76
2023/09/01 06:25:25;;;;;;;10.00;8.90;;;;;;;21.60;78.88;99601.95;105905;1259;74633;-75
2023/09/01 06:27:52;;;;;;;9.50;8.20;;;;;;;21.64;78.60;99607.91;105920;1259;60451;-74
2023/09/01 06:30:20;;;;;;;9.30;8.40;;;;;;;21.68;79.02;99607.48;105746;1259;60316;-76
2023/09/01 06:32:47;;;;;;;9.10;8.20;;;;;;;21.72;78.76;99609.39;105667;1260;72579;-75
2023/09/01 06:35:17;;;;;;;10.50;9.40;;;;;;;21.76;78.51;99606.04;105821;1257;70238;-73
2023/09/01 06:37:44;;;;;;;9.20;8.30;;;;;;;21.81;79.04;99607.43;106686;1260;73038;-73
2023/09/01 06:40:12;;;;;;;9.70;8.80;;;;;;;21.95;78.61;99601.70;108059;1259;60586;-74
2023/09/01 06:42:39;;;;;;;10.70;9.80;;;;;;;22.01;78.08;99602.56;107950;1253;60371;-75
2023/09/01 06:45:07;;;;;;;11.40;8.80;;;;;;;22.01;77.91;99603.97;106004;1259;72530;-75
2023/09/01 06:47:35;;;;;;;10.00;8.90;;;;;;;21.98;77.31;99607.85;105745;1259;68808;-75
2023/09/01 06:50:03;;;;;;;10.40;9.40;;;;;;;21.92;77.14;99610.96;105738;1257;71399;-75
2023/09/01 06:52:31;;;;;;;9.90;8.90;;;;;;;21.95;77.50;99610.85;105725;1254;61856;-77
2023/09/01 06:54:58;;;;;;;10.80;8.90;;;;;;;22.07;77.74;99606.88;105733;1253;60546;-75
2023/09/01 06:57:27;;;;;;;10.20;8.90;;;;;;;22.17;77.20;99612.11;105711;1260;73885;-76
2023/09/01 06:59:55;;;;;;;9.70;8.80;;;;;;;22.26;76.57;99614.96;105760;1259;68926;-75
2023/09/01 07:02:22;;;;;;;10.00;8.90;;;;;;;22.32;76.29;99614.21;105413;1259;71540;-76
2023/09/01 07:04:50;;;;;;;10.90;9.70;;;;;;;22.36;75.88;99611.79;105760;1259;60556;-76
2023/09/01 07:07:17;;;;;;;10.60;9.50;;;;;;;22.39;75.56;99610.08;105671;1259;60401;-75
2023/09/01 07:09:45;;;;;;;10.50;8.90;;;;;;;22.49;75.74;99602.63;105661;1259;72693;-76
2023/09/01 07:12:12;;;;;;;10.90;9.80;;;;;;;22.61;75.10;99601.83;105683;1256;69643;-75
2023/09/01 07:14:39;;;;;;;11.70;9.50;;;;;;;22.67;74.62;99596.16;105504;1259;72736;-74
2023/09/01 07:17:07;;;;;;;10.20;9.00;;;;;;;22.74;74.17;99598.20;105824;1254;62018;-75
2023/09/01 07:19:34;;;;;;;9.80;8.80;;;;;;;22.81;73.37;99600.17;105817;1259;60357;-76
2023/09/01 07:22:03;;;;;;;9.10;8.20;;;;;;;22.84;72.61;99597.23;105754;1259;73953;-75
2023/09/01 07:24:31;;;;;;;10.30;9.10;;;;;;;22.83;72.43;99597.01;105799;1259;70033;-76
2023/09/01 07:26:58;;;;;;;11.10;9.00;;;;;;;22.86;72.55;99597.05;105631;1254;70454;-76
2023/09/01 07:29:26;;;;;;;9.20;8.30;;;;;;;22.91;72.44;99597.26;105718;1254;61760;-74
2023/09/01 07:31:54;;;;;;;11.80;9.00;;;;;;;23.01;71.66;99596.19;105493;1254;60706;-75
2023/09/01 07:34:21;;;;;;;9.30;8.40;;;;;;;23.02;71.34;99594.05;105600;1253;73864;-76
2023/09/01 07:36:48;;;;;;;12.10;9.20;;;;;;;22.97;71.52;99594.41;105989;1257;70490;-75
2023/09/01 07:39:16;;;;;;;10.60;8.80;;;;;;;22.92;71.56;99597.49;105853;1257;72751;-75
2023/09/01 07:41:43;;;;;;;9.30;8.40;;;;;;;22.91;71.79;99601.39;105813;1259;62285;-74
2023/09/01 07:44:16;;;;;;;9.30;8.60;;;;;;;22.94;71.77;99600.92;105679;1259;60440;-75
2023/09/01 07:46:43;;;;;;;9.60;8.00;;;;;;;23.02;71.43;99595.94;105718;1258;72641;-75
2023/09/01 07:49:11;;;;;;;9.00;8.20;;;;;;;23.18;71.09;99597.33;105950;1257;70056;-73
2023/09/01 07:51:38;;;;;;;8.70;8.00;;;;;;;23.30;70.98;99593.55;105777;1256;71427;-75
2023/09/01 07:54:06;;;;;;;9.00;8.10;;;;;;;23.40;70.54;99597.66;106091;1259;60933;-74
2023/09/01 07:56:33;;;;;;;8.70;8.00;;;;;;;23.50;69.74;99598.57;106013;1256;62102;-75
2023/09/01 07:59:02;;;;;;;9.60;8.70;;;;;;;23.58;69.96;99596.63;106005;1259;74165;-75
2023/09/01 08:01:30;;;;;;;8.50;7.80;;;;;;;23.66;69.62;99597.36;106102;1259;69916;-74
2023/09/01 08:04:00;;;;;;;8.80;8.10;;;;;;;23.75;68.92;99596.73;105961;1254;71423;-74
2023/09/01 08:06:30;;;;;;;8.80;8.00;;;;;;;23.82;68.95;99595.35;105374;1254;60349;-75
2023/09/01 08:08:58;;;;;;;8.50;7.80;;;;;;;23.90;67.82;99591.77;105868;1254;60568;-74
2023/09/01 08:11:26;;;;;;;8.70;7.90;;;;;;;23.93;67.24;99586.05;105978;1254;72573;-75
2023/09/01 08:13:53;;;;;;;9.90;7.70;;;;;;;23.98;66.96;99583.77;105802;1259;70192;-75
2023/09/01 08:16:20;;;;;;;8.20;7.40;;;;;;;24.07;66.74;99585.98;105755;1258;73530;-74
2023/09/01 08:18:48;;;;;;;8.00;7.30;;;;;;;24.18;66.05;99588.11;105363;1257;60546;-75
2023/09/01 08:21:15;;;;;;;10.00;8.80;;;;;;;24.29;66.45;99589.33;105698;1253;60539;-75
2023/09/01 08:23:43;;;;;;;7.80;7.00;;;;;;;24.44;65.70;99587.14;105853;1257;73936;-75
2023/09/01 08:26:10;;;;;;;9.30;8.00;;;;;;;24.60;65.16;99586.70;105735;1260;68824;-75
2023/09/01 08:28:38;;;;;;;7.80;6.90;;;;;;;24.75;64.99;99585.79;105853;1258;71517;-75
2023/09/01 08:31:05;;;;;;;9.70;7.50;;;;;;;24.84;64.06;99590.77;105375;1253;60438;-75
2023/09/01 08:33:33;;;;;;;8.10;7.30;;;;;;;24.84;63.74;99593.53;105680;1259;60396;-75
2023/09/01 08:36:03;;;;;;;8.40;7.70;;;;;;;24.89;63.60;99597.04;105623;1255;73914;-75
2023/09/01 08:38:30;;;;;;;8.70;7.90;;;;;;;25.00;63.29;99592.77;105751;1254;70406;-74
2023/09/01 08:41:02;;;;;;;8.70;7.30;;;;;;;25.17;62.92;99592.33;105805;1254;71407;-75
2023/09/01 08:43:33;;;;;;;8.70;7.90;;;;;;;25.30;62.46;99591.75;105682;1254;60559;-76
2023/09/01 08:46:03;;;;;;;7.60;7.00;;;;;;;25.42;61.52;99595.02;105707;1259;60319;-77
2023/09/01 08:48:41;;;;;;;7.90;7.30;;;;;;;25.50;61.60;99601.23;105711;1260;74286;-76
2023/09/01 08:51:09;;;;;;;7.90;7.20;;;;;;;25.61;60.40;99604.95;105745;1255;70118;-76
2023/09/01 08:53:39;;;;;;;8.80;8.00;;;;;;;25.63;59.90;99606.84;105657;1258;72636;-77
2023/09/01 08:56:07;;;;;;;7.90;7.20;;;;;;;25.62;60.24;99606.52;105768;1256;60584;-74
2023/09/01 08:58:35;;;;;;;8.40;7.60;;;;;;;25.73;60.86;99601.18;105854;1254;60459;-76
2023/09/01 09:01:03;;;;;;;8.30;7.60;;;;;;;25.94;60.31;99599.40;105570;1257;72891;-75
2023/09/01 09:03:32;;;;;;;8.30;7.50;;;;;;;26.17;60.16;99596.73;105828;1258;70214;-74
2023/09/01 09:06:03;;;;;;;8.00;7.30;;;;;;;26.40;59.07;99591.78;105887;1259;71474;-74
2023/09/01 09:08:30;;;;;;;7.70;7.00;;;;;;;26.63;57.94;99593.14;105820;1256;60426;-74
2023/09/01 09:10:57;;;;;;;8.20;7.50;;;;;;;26.94;57.25;99591.11;105748;1254;60344;-74
2023/09/01 09:13:29;;;;;;;11.30;8.20;;;;;;;27.36;56.45;99593.89;105867;1259;74411;-75
2023/09/01 09:16:07;;;;;;;8.20;7.40;;;;;;;27.87;55.24;99594.88;105806;1254;70185;-74
2023/09/01 09:18:36;;;;;;;8.30;7.60;;;;;;;28.32;53.60;99596.05;105711;1259;72796;-72
2023/09/01 09:21:03;;;;;;;7.60;6.90;;;;;;;28.69;52.77;99595.70;105775;1257;60444;-74
2023/09/01 09:23:44;;;;;;;9.00;7.00;;;;;;;29.03;50.97;99593.91;105880;1257;60517;-75
2023/09/01 09:26:12;;;;;;;7.20;6.50;;;;;;;29.14;50.12;99594.45;105807;1257;74459;-76
2023/09/01 09:28:39;;;;;;;7.50;6.80;;;;;;;29.07;49.39;99597.84;105769;1257;69183;-74
2023/09/01 09:31:07;;;;;;;7.60;6.70;;;;;;;29.06;50.42;99596.65;105808;1254;73123;-75
2023/09/01 09:33:35;;;;;;;7.50;6.60;;;;;;;29.28;49.82;99597.25;105687;1254;60431;-74
2023/09/01 09:36:03;;;;;;;6.40;5.80;;;;;;;29.56;49.52;99604.00;105895;1258;60377;-73
2023/09/01 09:38:41;;;;;;;6.50;6.00;;;;;;;29.88;48.81;99605.19;105675;1260;73888;-75
2023/09/01 09:41:09;;;;;;;7.30;6.60;;;;;;;30.13;47.35;99604.70;105864;1256;70522;-75
2023/09/01 09:43:44;;;;;;;7.90;7.20;;;;;;;30.35;47.74;99607.48;105739;1254;73178;-76
2023/09/01 09:46:12;;;;;;;8.60;7.90;;;;;;;30.62;46.11;99607.44;105910;1256;60592;-76
2023/09/01 09:48:40;;;;;;;7.90;7.00;;;;;;;30.76;45.87;99612.13;105730;1255;60618;-75
2023/09/01 09:51:08;;;;;;;7.40;6.80;;;;;;;31.03;46.02;99614.88;105707;1259;72805;-74
2023/09/01 09:53:36;;;;;;;7.60;6.90;;;;;;;31.45;45.31;99611.31;105821;1254;68898;-77
2023/09/01 09:56:18;;;;;;;8.60;7.90;;;;;;;31.79;43.50;99618.54;105751;1259;72680;-77
2023/09/01 09:58:46;;;;;;;8.40;7.70;;;;;;;31.52;43.33;99621.32;105905;1258;62186;-75
2023/09/01 10:01:18;;;;;;;8.80;8.00;;;;;;;30.86;44.30;99622.02;105868;1255;60482;-75
2023/09/01 10:03:47;;;;;;;7.90;7.30;;;;;;;30.33;45.23;99627.20;106142;1254;72774;-76
2023/09/01 10:06:16;;;;;;;8.60;7.80;;;;;;;30.06;45.76;99624.55;106603;1258;69956;-75
2023/09/01 10:08:44;;;;;;;8.70;8.00;;;;;;;29.89;46.27;99625.79;106163;1260;71225;-75
2023/09/01 10:11:15;;;;;;;8.50;7.80;;;;;;;29.89;46.55;99627.14;107005;1259;60448;-76
2023/09/01 10:13:44;;;;;;;8.00;7.30;;;;;;;30.08;46.21;99628.25;107206;1254;60387;-79
2023/09/01 10:16:14;;;;;;;8.70;8.00;;;;;;;30.26;45.66;99632.26;108342;1253;72560;-79
2023/09/01 10:18:42;;;;;;;8.00;7.20;;;;;;;30.17;45.62;99629.98;108520;1259;69279;-79
2023/09/01 10:21:11;;;;;;;8.40;7.70;;;;;;;29.91;45.96;99632.85;108606;1254;71401;-81
2023/09/01 10:23:38;;;;;;;8.30;7.50;;;;;;;29.65;46.49;99635.34;107897;1257;60222;-79
2023/09/01 10:26:16;;;;;;;8.30;7.60;;;;;;;29.59;46.99;99633.84;106266;1260;60338;-76
2023/09/01 10:29:01;;;;;;;7.90;7.10;;;;;;;29.66;46.53;99633.29;106349;1257;73905;-79
2023/09/01 10:31:28;;;;;;;7.20;6.50;;;;;;;29.85;46.08;99637.40;105914;1260;68713;-79
2023/09/01 10:34:08;;;;;;;6.50;5.80;;;;;;;30.15;45.94;99638.05;105842;1259;71409;-79
2023/09/01 10:36:37;;;;;;;7.40;6.70;;;;;;;30.49;44.70;99637.16;105878;1260;60699;-79
2023/09/01 10:39:16;;;;;;;6.50;6.00;;;;;;;30.78;43.99;99641.25;106015;1257;60472;-80
2023/09/01 10:41:54;;;;;;;6.10;5.60;;;;;;;31.04;43.39;99632.02;105985;1258;73957;-78
2023/09/01 10:44:21;;;;;;;5.90;5.30;;;;;;;31.28;42.88;99633.76;105803;1260;69370;-80
2023/09/01 10:46:49;;;;;;;6.20;5.70;;;;;;;31.48;42.41;99637.77;105686;1257;73162;-77
2023/09/01 10:49:17;;;;;;;6.00;5.50;;;;;;;31.58;41.43;99635.47;105807;1257;60552;-76
2023/09/01 10:51:46;;;;;;;6.50;5.90;;;;;;;31.54;41.72;99633.48;105942;1260;60426;-79
2023/09/01 10:54:13;;;;;;;5.20;4.80;;;;;;;31.86;41.87;99631.30;106331;1260;72471;-78
2023/09/01 10:56:58;;;;;;;5.40;5.00;;;;;;;32.46;39.72;99638.83;106199;1254;70458;-81
2023/09/01 10:59:34;;;;;;;6.10;5.50;;;;;;;32.89;39.47;99635.80;105778;1256;73141;-77
2023/09/01 11:02:22;;;;;;;5.90;5.40;;;;;;;33.38;39.32;99638.83;105754;1257;60511;-76
2023/09/01 11:04:49;;;;;;;5.70;5.30;;;;;;;33.91;38.79;99639.90;105979;1259;60469;-78
2023/09/01 11:07:17;;;;;;;5.90;5.40;;;;;;;34.27;38.33;99636.88;105898;1254;64966;-79
2023/09/01 11:09:47;;;;;;;5.90;5.40;;;;;;;34.70;38.18;99646.07;105663;1260;60434;-75
2023/09/01 11:12:14;;;;;;;5.20;4.80;;;;;;;35.07;37.50;99643.08;105541;1261;62596;-76
2023/09/01 11:14:59;;;;;;;5.00;4.60;;;;;;;35.45;36.69;99639.95;105562;1260;60867;-75
2023/09/01 11:17:34;;;;;;;5.10;4.50;;;;;;;35.80;35.96;99639.35;105769;1262;60360;-76
2023/09/01 11:20:05;;;;;;;5.50;4.90;;;;;;;36.01;35.44;99639.46;105768;1260;65215;-75
2023/09/01 11:22:33;;;;;;;4.80;4.40;;;;;;;36.22;34.95;99632.70;105726;1254;61352;-77
2023/09/01 11:25:00;;;;;;;5.30;4.90;;;;;;;36.40;34.81;99632.73;105596;1257;193060;-75
2023/09/01 11:28:14;;;;;;;5.30;4.80;;;;;;;36.59;34.44;99636.38;102882;1290;599683;-73
2023/09/01 11:30:56;;;;;;;5.00;4.60;;;;;;;36.49;34.49;99640.77;105164;1266;59336;-77
2023/09/01 11:33:24;;;;;;;4.30;4.00;;;;;;;36.24;34.69;99638.61;104985;1266;59234;-75
2023/09/01 11:36:10;;;;;;;5.00;4.60;;;;;;;35.97;34.95;99641.23;105092;1267;63347;-75